sensor_id;sensor_type;location;lat;lon;timestamp;P1;durP1;ratioP1;P2;durP2;ratioP2
38338;SDS011;37117;50.050;19.924;2022-10-17T06:38:39;32.40;;;20.40;;
38338;SDS011;37117;50.050;19.924;2022-10-17T06:41:19;30.50;;;20.00;;
38338;SDS011;37117;50.050;19.924;2022-10-17T06:43:53;30.70;;;20.50;;
38338;SDS011;37117;50.050;19.924;2022-10-17T06:46:42;30.30;;;21.50;;
38338;SDS011;37117;50.050;19.924;2022-10-17T06:49:16;31.50;;;21.30;;
38338;SDS011;37117;50.050;19.924;2022-10-17T06:52:00;28.20;;;21.20;;
38338;SDS011;37117;50.050;19.924;2022-10-17T06:54:54;29.50;;;22.30;;
38338;SDS011;37117;50.050;19.924;2022-10-17T06:57:37;29.90;;;20.40;;
38338;SDS011;37117;50.050;19.924;2022-10-17T07:00:31;46.90;;;22.80;;
38338;SDS011;37117;50.050;19.924;2022-10-17T07:03:03;27.70;;;19.20;;
38338;SDS011;37117;50.050;19.924;2022-10-17T07:05:35;34.70;;;20.00;;
38338;SDS011;37117;50.050;19.924;2022-10-17T07:08:06;33.50;;;22.60;;
38338;SDS011;37117;50.050;19.924;2022-10-17T07:10:40;27.80;;;19.10;;
38338;SDS011;37117;50.050;19.924;2022-10-17T07:13:10;25.80;;;19.90;;
38338;SDS011;37117;50.050;19.924;2022-10-17T07:15:45;34.00;;;22.50;;
38338;SDS011;37117;50.050;19.924;2022-10-17T07:18:19;41.80;;;20.30;;
38338;SDS011;37117;50.050;19.924;2022-10-17T07:20:53;34.50;;;20.10;;
38338;SDS011;37117;50.050;19.924;2022-10-17T07:23:24;29.20;;;20.00;;
38338;SDS011;37117;50.050;19.924;2022-10-17T07:25:59;35.00;;;20.20;;
38338;SDS011;37117;50.050;19.924;2022-10-17T07:28:31;30.60;;;20.60;;
38338;SDS011;37117;50.050;19.924;2022-10-17T07:31:12;34.90;;;20.70;;
38338;SDS011;37117;50.050;19.924;2022-10-17T07:33:44;30.90;;;19.10;;
38338;SDS011;37117;50.050;19.924;2022-10-17T07:37:30;29.50;;;19.00;;
38338;SDS011;37117;50.050;19.924;2022-10-17T07:40:02;29.10;;;20.10;;
38338;SDS011;37117;50.050;19.924;2022-10-17T07:42:32;32.20;;;19.80;;
38338;SDS011;37117;50.050;19.924;2022-10-17T07:45:04;32.70;;;20.50;;
38338;SDS011;37117;50.050;19.924;2022-10-17T07:47:36;29.80;;;19.30;;
38338;SDS011;37117;50.050;19.924;2022-10-17T07:52:38;29.70;;;20.70;;
38338;SDS011;37117;50.050;19.924;2022-10-17T07:55:11;31.00;;;20.00;;
38338;SDS011;37117;50.050;19.924;2022-10-17T07:57:42;27.20;;;19.00;;
38338;SDS011;37117;50.050;19.924;2022-10-17T08:00:13;30.80;;;19.80;;
38338;SDS011;37117;50.050;19.924;2022-10-17T08:02:44;29.10;;;18.90;;
38338;SDS011;37117;50.050;19.924;2022-10-17T08:05:15;35.80;;;18.10;;
38338;SDS011;37117;50.050;19.924;2022-10-17T08:07:45;27.10;;;16.40;;
38338;SDS011;37117;50.050;19.924;2022-10-17T08:10:16;28.80;;;17.60;;
38338;SDS011;37117;50.050;19.924;2022-10-17T08:12:47;24.80;;;16.10;;
38338;SDS011;37117;50.050;19.924;2022-10-17T08:15:17;29.20;;;18.30;;
38338;SDS011;37117;50.050;19.924;2022-10-17T08:17:48;25.00;;;16.90;;
38338;SDS011;37117;50.050;19.924;2022-10-17T08:20:19;27.60;;;17.60;;
38338;SDS011;37117;50.050;19.924;2022-10-17T08:22:53;26.40;;;17.20;;
38338;SDS011;37117;50.050;19.924;2022-10-17T08:25:24;26.00;;;17.40;;
38338;SDS011;37117;50.050;19.924;2022-10-17T08:27:55;27.10;;;17.10;;
38338;SDS011;37117;50.050;19.924;2022-10-17T08:30:26;23.90;;;18.00;;
38338;SDS011;37117;50.050;19.924;2022-10-17T08:32:58;23.50;;;15.10;;
38338;SDS011;37117;50.050;19.924;2022-10-17T08:35:29;27.10;;;15.10;;
38338;SDS011;37117;50.050;19.924;2022-10-17T08:38:00;19.20;;;15.20;;
38338;SDS011;37117;50.050;19.924;2022-10-17T08:40:31;22.90;;;15.30;;
38338;SDS011;37117;50.050;19.924;2022-10-17T08:43:07;22.80;;;15.50;;
38338;SDS011;37117;50.050;19.924;2022-10-17T08:45:43;42.30;;;17.80;;
38338;SDS011;37117;50.050;19.924;2022-10-17T08:48:16;25.90;;;14.30;;
38338;SDS011;37117;50.050;19.924;2022-10-17T08:50:49;24.00;;;13.70;;
38338;SDS011;37117;50.050;19.924;2022-10-17T08:53:22;25.00;;;14.40;;
38338;SDS011;37117;50.050;19.924;2022-10-17T08:55:54;16.10;;;11.40;;
38338;SDS011;37117;50.050;19.924;2022-10-17T08:58:27;14.40;;;10.60;;
38338;SDS011;37117;50.050;19.924;2022-10-17T09:01:02;18.10;;;10.80;;
38338;SDS011;37117;50.050;19.924;2022-10-17T09:03:51;17.00;;;11.10;;
38338;SDS011;37117;50.050;19.924;2022-10-17T09:06:23;16.40;;;10.40;;
38338;SDS011;37117;50.050;19.924;2022-10-17T09:09:02;16.50;;;10.30;;
38338;SDS011;37117;50.050;19.924;2022-10-17T09:11:38;16.60;;;11.50;;
38338;SDS011;37117;50.050;19.924;2022-10-17T09:14:17;14.60;;;10.50;;
38338;SDS011;37117;50.050;19.924;2022-10-17T09:16:53;19.00;;;12.00;;
38338;SDS011;37117;50.050;19.924;2022-10-17T09:19:27;16.40;;;11.00;;
38338;SDS011;37117;50.050;19.924;2022-10-17T09:22:00;14.60;;;11.00;;
38338;SDS011;37117;50.050;19.924;2022-10-17T09:24:36;18.20;;;11.40;;
38338;SDS011;37117;50.050;19.924;2022-10-17T09:27:11;16.60;;;11.10;;
38338;SDS011;37117;50.050;19.924;2022-10-17T09:29:44;17.20;;;11.00;;
38338;SDS011;37117;50.050;19.924;2022-10-17T09:32:16;17.40;;;11.50;;
38338;SDS011;37117;50.050;19.924;2022-10-17T09:34:48;16.10;;;11.80;;
38338;SDS011;37117;50.050;19.924;2022-10-17T09:37:18;20.40;;;12.00;;
38338;SDS011;37117;50.050;19.924;2022-10-17T09:39:52;19.90;;;12.70;;
38338;SDS011;37117;50.050;19.924;2022-10-17T09:42:23;17.30;;;12.90;;
38338;SDS011;37117;50.050;19.924;2022-10-17T09:47:27;18.90;;;12.50;;
38338;SDS011;37117;50.050;19.924;2022-10-17T09:49:58;18.40;;;12.40;;
38338;SDS011;37117;50.050;19.924;2022-10-17T09:52:34;14.80;;;10.70;;
38338;SDS011;37117;50.050;19.924;2022-10-17T09:55:06;16.80;;;11.30;;
38338;SDS011;37117;50.050;19.924;2022-10-17T09:57:51;17.40;;;11.00;;
38338;SDS011;37117;50.050;19.924;2022-10-17T10:00:23;24.40;;;11.10;;
38338;SDS011;37117;50.050;19.924;2022-10-17T10:05:38;17.90;;;11.90;;
38338;SDS011;37117;50.050;19.924;2022-10-17T10:08:13;17.80;;;11.20;;
38338;SDS011;37117;50.050;19.924;2022-10-17T10:10:44;17.40;;;10.70;;
38338;SDS011;37117;50.050;19.924;2022-10-17T10:13:17;18.70;;;10.40;;
38338;SDS011;37117;50.050;19.924;2022-10-17T10:18:27;15.40;;;11.20;;
38338;SDS011;37117;50.050;19.924;2022-10-17T10:21:11;18.40;;;10.50;;
38338;SDS011;37117;50.050;19.924;2022-10-17T10:23:42;16.80;;;10.60;;
38338;SDS011;37117;50.050;19.924;2022-10-17T10:26:20;13.90;;;9.20;;
38338;SDS011;37117;50.050;19.924;2022-10-17T10:28:53;13.50;;;9.80;;
38338;SDS011;37117;50.050;19.924;2022-10-17T10:31:35;14.40;;;8.50;;
38338;SDS011;37117;50.050;19.924;2022-10-17T10:36:44;18.30;;;9.80;;
38338;SDS011;37117;50.050;19.924;2022-10-17T10:39:27;22.20;;;9.60;;
38338;SDS011;37117;50.050;19.924;2022-10-17T10:42:00;15.30;;;9.50;;
38338;SDS011;37117;50.050;19.924;2022-10-17T10:44:31;13.80;;;8.90;;
38338;SDS011;37117;50.050;19.924;2022-10-17T10:47:07;12.80;;;9.00;;
38338;SDS011;37117;50.050;19.924;2022-10-17T10:49:37;19.60;;;9.80;;
38338;SDS011;37117;50.050;19.924;2022-10-17T10:52:09;14.40;;;9.60;;
38338;SDS011;37117;50.050;19.924;2022-10-17T10:54:44;16.20;;;9.40;;
38338;SDS011;37117;50.050;19.924;2022-10-17T10:57:18;16.50;;;9.60;;
38338;SDS011;37117;50.050;19.924;2022-10-17T10:59:53;13.60;;;9.30;;
38338;SDS011;37117;50.050;19.924;2022-10-17T11:02:26;14.70;;;9.50;;
38338;SDS011;37117;50.050;19.924;2022-10-17T11:05:00;18.60;;;10.10;;
38338;SDS011;37117;50.050;19.924;2022-10-17T11:07:34;14.80;;;8.40;;
38338;SDS011;37117;50.050;19.924;2022-10-17T11:10:11;11.40;;;8.10;;
38338;SDS011;37117;50.050;19.924;2022-10-17T11:12:44;16.70;;;8.60;;
38338;SDS011;37117;50.050;19.924;2022-10-17T11:15:19;17.20;;;8.90;;
38338;SDS011;37117;50.050;19.924;2022-10-17T11:17:54;17.10;;;9.60;;
38338;SDS011;37117;50.050;19.924;2022-10-17T11:20:29;19.30;;;9.80;;
38338;SDS011;37117;50.050;19.924;2022-10-17T11:23:07;16.50;;;10.70;;
38338;SDS011;37117;50.050;19.924;2022-10-17T11:25:39;20.00;;;9.40;;
38338;SDS011;37117;50.050;19.924;2022-10-17T11:28:12;20.30;;;9.90;;
38338;SDS011;37117;50.050;19.924;2022-10-17T11:30:45;19.60;;;10.50;;
38338;SDS011;37117;50.050;19.924;2022-10-17T11:33:19;15.80;;;8.60;;
38338;SDS011;37117;50.050;19.924;2022-10-17T11:35:52;16.70;;;8.10;;
38338;SDS011;37117;50.050;19.924;2022-10-17T11:38:29;13.80;;;8.40;;
38338;SDS011;37117;50.050;19.924;2022-10-17T11:41:03;13.30;;;8.00;;
38338;SDS011;37117;50.050;19.924;2022-10-17T11:43:36;15.50;;;8.60;;
38338;SDS011;37117;50.050;19.924;2022-10-17T11:46:11;12.20;;;7.70;;
38338;SDS011;37117;50.050;19.924;2022-10-17T11:48:44;13.30;;;7.30;;
38338;SDS011;37117;50.050;19.924;2022-10-17T11:51:18;12.40;;;8.10;;
38338;SDS011;37117;50.050;19.924;2022-10-17T11:54:10;12.00;;;8.30;;
38338;SDS011;37117;50.050;19.924;2022-10-17T11:56:41;10.50;;;6.90;;
38338;SDS011;37117;50.050;19.924;2022-10-17T12:04:44;10.70;;;7.00;;
38338;SDS011;37117;50.050;19.924;2022-10-17T12:07:19;7.90;;;6.00;;
38338;SDS011;37117;50.050;19.924;2022-10-17T12:09:52;9.60;;;6.30;;
38338;SDS011;37117;50.050;19.924;2022-10-17T12:12:25;8.40;;;6.70;;
38338;SDS011;37117;50.050;19.924;2022-10-17T12:17:28;10.00;;;5.90;;
38338;SDS011;37117;50.050;19.924;2022-10-17T12:22:50;9.80;;;6.50;;
38338;SDS011;37117;50.050;19.924;2022-10-17T12:25:22;9.60;;;6.30;;
38338;SDS011;37117;50.050;19.924;2022-10-17T12:28:02;9.70;;;6.40;;
38338;SDS011;37117;50.050;19.924;2022-10-17T12:33:15;9.90;;;6.00;;
38338;SDS011;37117;50.050;19.924;2022-10-17T12:35:50;8.60;;;6.30;;
38338;SDS011;37117;50.050;19.924;2022-10-17T12:38:27;7.70;;;6.10;;
38338;SDS011;37117;50.050;19.924;2022-10-17T12:41:02;8.30;;;6.20;;
38338;SDS011;37117;50.050;19.924;2022-10-17T12:49:24;11.30;;;6.40;;
38338;SDS011;37117;50.050;19.924;2022-10-17T12:52:14;10.30;;;6.60;;
38338;SDS011;37117;50.050;19.924;2022-10-17T12:54:46;9.50;;;6.30;;
38338;SDS011;37117;50.050;19.924;2022-10-17T12:57:39;9.70;;;6.10;;
38338;SDS011;37117;50.050;19.924;2022-10-17T13:00:15;9.60;;;6.40;;
38338;SDS011;37117;50.050;19.924;2022-10-17T13:02:46;9.50;;;6.80;;
38338;SDS011;37117;50.050;19.924;2022-10-17T13:05:18;9.60;;;6.40;;
38338;SDS011;37117;50.050;19.924;2022-10-17T13:07:52;9.40;;;6.60;;
38338;SDS011;37117;50.050;19.924;2022-10-17T13:10:24;10.30;;;6.90;;
38338;SDS011;37117;50.050;19.924;2022-10-17T13:12:59;9.80;;;6.60;;
38338;SDS011;37117;50.050;19.924;2022-10-17T13:15:31;9.00;;;5.70;;
38338;SDS011;37117;50.050;19.924;2022-10-17T13:18:03;8.40;;;6.30;;
38338;SDS011;37117;50.050;19.924;2022-10-17T13:20:34;8.80;;;6.00;;
38338;SDS011;37117;50.050;19.924;2022-10-17T13:23:04;9.80;;;6.70;;
38338;SDS011;37117;50.050;19.924;2022-10-17T13:25:35;8.20;;;6.10;;
38338;SDS011;37117;50.050;19.924;2022-10-17T13:28:11;11.80;;;6.10;;
38338;SDS011;37117;50.050;19.924;2022-10-17T13:30:44;12.50;;;6.20;;
38338;SDS011;37117;50.050;19.924;2022-10-17T13:33:31;8.90;;;6.10;;
38338;SDS011;37117;50.050;19.924;2022-10-17T13:36:05;7.80;;;6.00;;
38338;SDS011;37117;50.050;19.924;2022-10-17T13:38:36;10.30;;;6.30;;
38338;SDS011;37117;50.050;19.924;2022-10-17T13:41:12;9.50;;;6.40;;
38338;SDS011;37117;50.050;19.924;2022-10-17T13:44:05;11.20;;;5.80;;
38338;SDS011;37117;50.050;19.924;2022-10-17T13:46:39;11.20;;;6.90;;
38338;SDS011;37117;50.050;19.924;2022-10-17T13:49:11;9.40;;;6.00;;
38338;SDS011;37117;50.050;19.924;2022-10-17T13:51:45;10.10;;;5.90;;
38338;SDS011;37117;50.050;19.924;2022-10-17T13:54:17;10.30;;;6.30;;
38338;SDS011;37117;50.050;19.924;2022-10-17T13:56:53;7.80;;;6.00;;
38338;SDS011;37117;50.050;19.924;2022-10-17T13:59:25;12.50;;;5.90;;
38338;SDS011;37117;50.050;19.924;2022-10-17T14:01:58;12.30;;;6.60;;
38338;SDS011;37117;50.050;19.924;2022-10-17T14:04:29;7.80;;;5.80;;
38338;SDS011;37117;50.050;19.924;2022-10-17T14:07:22;9.20;;;5.90;;
38338;SDS011;37117;50.050;19.924;2022-10-17T14:09:54;7.70;;;5.30;;
38338;SDS011;37117;50.050;19.924;2022-10-17T14:12:25;7.80;;;5.80;;
38338;SDS011;37117;50.050;19.924;2022-10-17T14:14:56;7.70;;;5.90;;
38338;SDS011;37117;50.050;19.924;2022-10-17T14:17:39;7.50;;;5.70;;
38338;SDS011;37117;50.050;19.924;2022-10-17T14:20:16;7.20;;;5.60;;
38338;SDS011;37117;50.050;19.924;2022-10-17T14:26:02;8.00;;;6.20;;
38338;SDS011;37117;50.050;19.924;2022-10-17T14:28:33;9.00;;;5.80;;
38338;SDS011;37117;50.050;19.924;2022-10-17T14:33:54;9.10;;;5.60;;
38338;SDS011;37117;50.050;19.924;2022-10-17T14:36:32;9.50;;;6.50;;
38338;SDS011;37117;50.050;19.924;2022-10-17T14:39:03;10.10;;;5.80;;
38338;SDS011;37117;50.050;19.924;2022-10-17T14:41:42;10.30;;;6.40;;
38338;SDS011;37117;50.050;19.924;2022-10-17T14:44:18;9.60;;;6.30;;
38338;SDS011;37117;50.050;19.924;2022-10-17T14:46:51;10.90;;;6.00;;
38338;SDS011;37117;50.050;19.924;2022-10-17T14:49:25;7.90;;;5.70;;
38338;SDS011;37117;50.050;19.924;2022-10-17T14:54:56;14.50;;;7.00;;
38338;SDS011;37117;50.050;19.924;2022-10-17T14:57:28;9.10;;;6.00;;
38338;SDS011;37117;50.050;19.924;2022-10-17T15:00:05;9.60;;;6.70;;
38338;SDS011;37117;50.050;19.924;2022-10-17T15:05:05;9.80;;;6.70;;
38338;SDS011;37117;50.050;19.924;2022-10-17T15:07:41;10.10;;;8.20;;
38338;SDS011;37117;50.050;19.924;2022-10-17T15:10:19;11.60;;;7.80;;
38338;SDS011;37117;50.050;19.924;2022-10-17T15:12:52;12.00;;;8.00;;
38338;SDS011;37117;50.050;19.924;2022-10-17T15:15:32;10.00;;;6.80;;
38338;SDS011;37117;50.050;19.924;2022-10-17T15:18:03;9.20;;;7.20;;
38338;SDS011;37117;50.050;19.924;2022-10-17T15:20:34;13.80;;;7.30;;
38338;SDS011;37117;50.050;19.924;2022-10-17T15:23:05;10.30;;;6.50;;
38338;SDS011;37117;50.050;19.924;2022-10-17T15:25:35;11.10;;;6.90;;
38338;SDS011;37117;50.050;19.924;2022-10-17T15:28:07;12.10;;;6.70;;
38338;SDS011;37117;50.050;19.924;2022-10-17T15:30:39;12.60;;;6.20;;
38338;SDS011;37117;50.050;19.924;2022-10-17T15:33:10;11.70;;;7.60;;
38338;SDS011;37117;50.050;19.924;2022-10-17T15:35:40;13.60;;;6.30;;
38338;SDS011;37117;50.050;19.924;2022-10-17T15:38:12;13.10;;;6.30;;
38338;SDS011;37117;50.050;19.924;2022-10-17T15:40:46;10.10;;;7.10;;
38338;SDS011;37117;50.050;19.924;2022-10-17T15:43:19;24.60;;;7.60;;
38338;SDS011;37117;50.050;19.924;2022-10-17T15:45:50;12.00;;;7.40;;
38338;SDS011;37117;50.050;19.924;2022-10-17T15:48:22;12.40;;;7.80;;
38338;SDS011;37117;50.050;19.924;2022-10-17T15:50:53;14.20;;;7.70;;
38338;SDS011;37117;50.050;19.924;2022-10-17T15:53:24;14.40;;;8.70;;
38338;SDS011;37117;50.050;19.924;2022-10-17T15:55:54;14.90;;;8.80;;
38338;SDS011;37117;50.050;19.924;2022-10-17T15:58:25;13.80;;;7.50;;
38338;SDS011;37117;50.050;19.924;2022-10-17T16:00:58;13.80;;;7.80;;
38338;SDS011;37117;50.050;19.924;2022-10-17T16:03:29;10.40;;;7.50;;
38338;SDS011;37117;50.050;19.924;2022-10-17T16:05:59;14.00;;;7.40;;
38338;SDS011;37117;50.050;19.924;2022-10-17T16:08:30;14.60;;;9.00;;
38338;SDS011;37117;50.050;19.924;2022-10-17T16:11:01;14.30;;;7.80;;
38338;SDS011;37117;50.050;19.924;2022-10-17T16:13:32;12.30;;;7.80;;
38338;SDS011;37117;50.050;19.924;2022-10-17T16:16:03;13.90;;;8.80;;
38338;SDS011;37117;50.050;19.924;2022-10-17T16:18:33;23.30;;;9.10;;
38338;SDS011;37117;50.050;19.924;2022-10-17T16:21:04;18.50;;;10.50;;
38338;SDS011;37117;50.050;19.924;2022-10-17T16:23:35;17.00;;;11.00;;
38338;SDS011;37117;50.050;19.924;2022-10-17T16:26:06;41.60;;;29.20;;
38338;SDS011;37117;50.050;19.924;2022-10-17T16:28:36;24.50;;;18.10;;
38338;SDS011;37117;50.050;19.924;2022-10-17T16:31:18;25.10;;;17.90;;
38338;SDS011;37117;50.050;19.924;2022-10-17T16:33:50;26.70;;;18.30;;
38338;SDS011;37117;50.050;19.924;2022-10-17T16:36:21;21.40;;;14.80;;
38338;SDS011;37117;50.050;19.924;2022-10-17T16:38:53;38.70;;;29.10;;
38338;SDS011;37117;50.050;19.924;2022-10-17T16:41:24;32.90;;;21.20;;
38338;SDS011;37117;50.050;19.924;2022-10-17T16:43:56;41.00;;;29.80;;
38338;SDS011;37117;50.050;19.924;2022-10-17T16:46:27;38.50;;;26.70;;
38338;SDS011;37117;50.050;19.924;2022-10-17T16:48:58;31.40;;;24.00;;
38338;SDS011;37117;50.050;19.924;2022-10-17T16:51:30;31.30;;;19.00;;
38338;SDS011;37117;50.050;19.924;2022-10-17T16:54:02;31.70;;;20.20;;
38338;SDS011;37117;50.050;19.924;2022-10-17T16:56:33;33.70;;;22.90;;
38338;SDS011;37117;50.050;19.924;2022-10-17T16:59:03;22.30;;;13.80;;
38338;SDS011;37117;50.050;19.924;2022-10-17T17:01:35;22.30;;;15.10;;
38338;SDS011;37117;50.050;19.924;2022-10-17T17:04:06;21.50;;;14.20;;
38338;SDS011;37117;50.050;19.924;2022-10-17T17:06:38;14.10;;;10.00;;
38338;SDS011;37117;50.050;19.924;2022-10-17T17:09:09;21.60;;;11.90;;
38338;SDS011;37117;50.050;19.924;2022-10-17T17:11:40;20.10;;;13.10;;
38338;SDS011;37117;50.050;19.924;2022-10-17T17:14:10;18.30;;;10.90;;
38338;SDS011;37117;50.050;19.924;2022-10-17T17:16:41;14.90;;;10.60;;
38338;SDS011;37117;50.050;19.924;2022-10-17T17:19:12;15.60;;;10.80;;
38338;SDS011;37117;50.050;19.924;2022-10-17T17:21:45;15.40;;;10.70;;
38338;SDS011;37117;50.050;19.924;2022-10-17T17:24:19;19.40;;;10.00;;
38338;SDS011;37117;50.050;19.924;2022-10-17T17:26:51;15.70;;;10.20;;
38338;SDS011;37117;50.050;19.924;2022-10-17T17:29:22;13.00;;;9.20;;
38338;SDS011;37117;50.050;19.924;2022-10-17T17:31:54;14.60;;;10.40;;
38338;SDS011;37117;50.050;19.924;2022-10-17T17:34:25;15.40;;;9.60;;
38338;SDS011;37117;50.050;19.924;2022-10-17T17:36:56;20.10;;;9.90;;
38338;SDS011;37117;50.050;19.924;2022-10-17T17:39:26;14.20;;;8.40;;
38338;SDS011;37117;50.050;19.924;2022-10-17T17:41:58;17.60;;;9.10;;
38338;SDS011;37117;50.050;19.924;2022-10-17T17:44:28;16.70;;;9.70;;
38338;SDS011;37117;50.050;19.924;2022-10-17T17:47:00;16.10;;;9.00;;
38338;SDS011;37117;50.050;19.924;2022-10-17T17:49:31;10.10;;;7.90;;
38338;SDS011;37117;50.050;19.924;2022-10-17T17:52:02;13.50;;;8.60;;
38338;SDS011;37117;50.050;19.924;2022-10-17T17:54:32;13.90;;;7.80;;
38338;SDS011;37117;50.050;19.924;2022-10-17T17:57:09;16.10;;;9.20;;
38338;SDS011;37117;50.050;19.924;2022-10-17T17:59:40;17.30;;;8.20;;
38338;SDS011;37117;50.050;19.924;2022-10-17T18:02:11;11.20;;;7.60;;
38338;SDS011;37117;50.050;19.924;2022-10-17T18:04:42;20.10;;;9.00;;
38338;SDS011;37117;50.050;19.924;2022-10-17T18:07:13;17.80;;;9.30;;
38338;SDS011;37117;50.050;19.924;2022-10-17T18:09:44;17.60;;;10.50;;
38338;SDS011;37117;50.050;19.924;2022-10-17T18:12:15;19.80;;;10.00;;
38338;SDS011;37117;50.050;19.924;2022-10-17T18:14:46;14.70;;;9.30;;
38338;SDS011;37117;50.050;19.924;2022-10-17T18:17:17;17.90;;;9.60;;
38338;SDS011;37117;50.050;19.924;2022-10-17T18:19:47;19.10;;;9.40;;
38338;SDS011;37117;50.050;19.924;2022-10-17T18:22:19;13.90;;;7.90;;
38338;SDS011;37117;50.050;19.924;2022-10-17T18:24:50;21.80;;;9.30;;
38338;SDS011;37117;50.050;19.924;2022-10-17T18:27:21;20.70;;;10.00;;
38338;SDS011;37117;50.050;19.924;2022-10-17T18:29:51;20.80;;;11.80;;
38338;SDS011;37117;50.050;19.924;2022-10-17T18:32:22;19.50;;;11.80;;
38338;SDS011;37117;50.050;19.924;2022-10-17T18:34:53;17.90;;;11.20;;
38338;SDS011;37117;50.050;19.924;2022-10-17T18:37:24;21.20;;;11.00;;
38338;SDS011;37117;50.050;19.924;2022-10-17T18:39:55;19.70;;;11.10;;
38338;SDS011;37117;50.050;19.924;2022-10-17T18:42:25;18.60;;;10.60;;
38338;SDS011;37117;50.050;19.924;2022-10-17T18:44:57;19.70;;;12.00;;
38338;SDS011;37117;50.050;19.924;2022-10-17T18:47:28;20.80;;;10.50;;
38338;SDS011;37117;50.050;19.924;2022-10-17T18:49:59;20.30;;;11.30;;
38338;SDS011;37117;50.050;19.924;2022-10-17T18:52:30;21.90;;;10.60;;
38338;SDS011;37117;50.050;19.924;2022-10-17T18:55:00;16.30;;;10.70;;
38338;SDS011;37117;50.050;19.924;2022-10-17T18:57:31;29.80;;;10.90;;
38338;SDS011;37117;50.050;19.924;2022-10-17T19:00:03;16.60;;;9.70;;
38338;SDS011;37117;50.050;19.924;2022-10-17T19:02:34;19.70;;;11.60;;
38338;SDS011;37117;50.050;19.924;2022-10-17T19:05:06;25.70;;;13.40;;
38338;SDS011;37117;50.050;19.924;2022-10-17T19:07:37;21.70;;;11.00;;
38338;SDS011;37117;50.050;19.924;2022-10-17T19:10:08;18.20;;;9.30;;
38338;SDS011;37117;50.050;19.924;2022-10-17T19:12:39;15.50;;;10.30;;
38338;SDS011;37117;50.050;19.924;2022-10-17T19:15:10;18.90;;;10.30;;
38338;SDS011;37117;50.050;19.924;2022-10-17T19:17:41;19.30;;;10.10;;
38338;SDS011;37117;50.050;19.924;2022-10-17T19:20:12;21.60;;;10.90;;
38338;SDS011;37117;50.050;19.924;2022-10-17T19:22:42;17.30;;;11.50;;
38338;SDS011;37117;50.050;19.924;2022-10-17T19:25:13;20.20;;;13.00;;
38338;SDS011;37117;50.050;19.924;2022-10-17T19:27:44;25.70;;;13.30;;
38338;SDS011;37117;50.050;19.924;2022-10-17T19:30:15;18.00;;;12.30;;
38338;SDS011;37117;50.050;19.924;2022-10-17T19:32:46;22.60;;;11.80;;
38338;SDS011;37117;50.050;19.924;2022-10-17T19:35:17;21.00;;;12.80;;
38338;SDS011;37117;50.050;19.924;2022-10-17T19:37:47;19.40;;;11.20;;
38338;SDS011;37117;50.050;19.924;2022-10-17T19:40:18;20.30;;;12.70;;
38338;SDS011;37117;50.050;19.924;2022-10-17T19:42:49;27.00;;;13.90;;
38338;SDS011;37117;50.050;19.924;2022-10-17T19:45:20;19.90;;;12.70;;
38338;SDS011;37117;50.050;19.924;2022-10-17T19:47:51;19.70;;;11.10;;
38338;SDS011;37117;50.050;19.924;2022-10-17T19:50:21;16.20;;;9.80;;
38338;SDS011;37117;50.050;19.924;2022-10-17T19:52:52;17.90;;;10.40;;
38338;SDS011;37117;50.050;19.924;2022-10-17T19:55:23;17.50;;;10.50;;
38338;SDS011;37117;50.050;19.924;2022-10-17T19:57:54;22.00;;;11.40;;
38338;SDS011;37117;50.050;19.924;2022-10-17T20:00:24;16.90;;;11.20;;
38338;SDS011;37117;50.050;19.924;2022-10-17T20:02:56;16.40;;;11.50;;
38338;SDS011;37117;50.050;19.924;2022-10-17T20:05:27;14.90;;;10.10;;
38338;SDS011;37117;50.050;19.924;2022-10-17T20:07:58;17.30;;;10.70;;
38338;SDS011;37117;50.050;19.924;2022-10-17T20:10:28;21.20;;;11.90;;
38338;SDS011;37117;50.050;19.924;2022-10-17T20:12:59;22.70;;;11.70;;
38338;SDS011;37117;50.050;19.924;2022-10-17T20:15:30;21.60;;;12.40;;
38338;SDS011;37117;50.050;19.924;2022-10-17T20:18:01;21.60;;;13.40;;
38338;SDS011;37117;50.050;19.924;2022-10-17T20:20:31;20.30;;;12.00;;
38338;SDS011;37117;50.050;19.924;2022-10-17T20:23:03;22.10;;;12.30;;
38338;SDS011;37117;50.050;19.924;2022-10-17T20:25:34;20.00;;;10.90;;
38338;SDS011;37117;50.050;19.924;2022-10-17T20:28:06;20.50;;;12.80;;
38338;SDS011;37117;50.050;19.924;2022-10-17T20:30:37;23.50;;;13.20;;
38338;SDS011;37117;50.050;19.924;2022-10-17T20:33:12;27.00;;;13.80;;
38338;SDS011;37117;50.050;19.924;2022-10-17T20:35:44;26.00;;;14.40;;
38338;SDS011;37117;50.050;19.924;2022-10-17T20:38:14;22.30;;;15.60;;
38338;SDS011;37117;50.050;19.924;2022-10-17T20:40:45;25.70;;;14.80;;
38338;SDS011;37117;50.050;19.924;2022-10-17T20:43:16;28.10;;;15.70;;
38338;SDS011;37117;50.050;19.924;2022-10-17T20:45:47;25.90;;;16.60;;
38338;SDS011;37117;50.050;19.924;2022-10-17T20:48:20;28.70;;;16.80;;
38338;SDS011;37117;50.050;19.924;2022-10-17T20:50:51;31.60;;;17.60;;
38338;SDS011;37117;50.050;19.924;2022-10-17T20:53:23;31.70;;;17.90;;
38338;SDS011;37117;50.050;19.924;2022-10-17T20:56:06;31.20;;;17.30;;
38338;SDS011;37117;50.050;19.924;2022-10-17T20:58:37;36.30;;;18.90;;
38338;SDS011;37117;50.050;19.924;2022-10-17T21:01:08;25.90;;;18.10;;
38338;SDS011;37117;50.050;19.924;2022-10-17T21:03:39;26.00;;;17.60;;
38338;SDS011;37117;50.050;19.924;2022-10-17T21:06:14;25.30;;;16.20;;
38338;SDS011;37117;50.050;19.924;2022-10-17T21:08:45;29.00;;;18.50;;
38338;SDS011;37117;50.050;19.924;2022-10-17T21:11:17;23.90;;;16.90;;
38338;SDS011;37117;50.050;19.924;2022-10-17T21:13:53;35.70;;;19.40;;
38338;SDS011;37117;50.050;19.924;2022-10-17T21:16:24;33.00;;;17.50;;
38338;SDS011;37117;50.050;19.924;2022-10-17T21:18:55;37.50;;;17.60;;
38338;SDS011;37117;50.050;19.924;2022-10-17T21:21:27;25.20;;;17.20;;
38338;SDS011;37117;50.050;19.924;2022-10-17T21:23:58;26.10;;;17.30;;
38338;SDS011;37117;50.050;19.924;2022-10-17T21:26:32;22.00;;;13.60;;
38338;SDS011;37117;50.050;19.924;2022-10-17T21:29:03;27.40;;;15.20;;
38338;SDS011;37117;50.050;19.924;2022-10-17T21:31:34;21.40;;;14.10;;
38338;SDS011;37117;50.050;19.924;2022-10-17T21:34:06;23.40;;;12.60;;
38338;SDS011;37117;50.050;19.924;2022-10-17T21:36:37;18.20;;;11.40;;
38338;SDS011;37117;50.050;19.924;2022-10-17T21:39:08;17.90;;;11.70;;
38338;SDS011;37117;50.050;19.924;2022-10-17T21:41:39;18.00;;;12.20;;
38338;SDS011;37117;50.050;19.924;2022-10-17T21:44:12;19.00;;;11.00;;
38338;SDS011;37117;50.050;19.924;2022-10-17T21:46:43;20.50;;;12.30;;
38338;SDS011;37117;50.050;19.924;2022-10-17T21:49:15;17.20;;;11.70;;
38338;SDS011;37117;50.050;19.924;2022-10-17T21:51:47;15.00;;;10.80;;
38338;SDS011;37117;50.050;19.924;2022-10-17T21:54:19;17.60;;;12.70;;
38338;SDS011;37117;50.050;19.924;2022-10-17T21:56:51;19.20;;;11.70;;
38338;SDS011;37117;50.050;19.924;2022-10-17T21:59:22;19.10;;;11.60;;
38338;SDS011;37117;50.050;19.924;2022-10-17T22:01:52;18.70;;;12.30;;
38338;SDS011;37117;50.050;19.924;2022-10-17T22:04:23;22.20;;;14.90;;
38338;SDS011;37117;50.050;19.924;2022-10-17T22:06:53;28.30;;;17.80;;
38338;SDS011;37117;50.050;19.924;2022-10-17T22:09:25;26.30;;;16.50;;
38338;SDS011;37117;50.050;19.924;2022-10-17T22:11:56;26.30;;;18.30;;